sensor_id;sensor_type;location;lat;lon;timestamp;pressure;altitude;pressure_sealevel;temperature;humidity
33781;BME280;20097;50.832;19.100;2023-05-25T00:01:01;98808.69;;;11.74;100.00
33781;BME280;20097;50.832;19.100;2023-05-25T00:06:06;98800.53;;;11.77;100.00
33781;BME280;20097;50.832;19.100;2023-05-25T00:11:12;98803.16;;;11.77;100.00
33781;BME280;20097;50.832;19.100;2023-05-25T00:16:20;98807.22;;;11.80;100.00
33781;BME280;20097;50.832;19.100;2023-05-25T00:21:24;98810.03;;;11.70;100.00
33781;BME280;20097;50.832;19.100;2023-05-25T00:26:29;98819.50;;;11.71;100.00
33781;BME280;20097;50.832;19.100;2023-05-25T00:31:35;98811.78;;;11.78;100.00
33781;BME280;20097;50.832;19.100;2023-05-25T00:36:39;98811.00;;;11.77;100.00
33781;BME280;20097;50.832;19.100;2023-05-25T00:41:47;98809.66;;;11.81;100.00
33781;BME280;20097;50.832;19.100;2023-05-25T00:46:53;98807.22;;;11.80;100.00
33781;BME280;20097;50.832;19.100;2023-05-25T00:51:58;98798.06;;;11.84;100.00
33781;BME280;20097;50.832;19.100;2023-05-25T00:57:06;98797.88;;;11.85;100.00
33781;BME280;20097;50.832;19.100;2023-05-25T01:02:12;98787.94;;;11.73;100.00
33781;BME280;20097;50.832;19.100;2023-05-25T01:07:22;98787.75;;;11.74;100.00
33781;BME280;20097;50.832;19.100;2023-05-25T01:12:29;98790.38;;;11.74;100.00
33781;BME280;20097;50.832;19.100;2023-05-25T01:17:37;98795.16;;;11.71;100.00
33781;BME280;20097;50.832;19.100;2023-05-25T01:22:48;98805.44;;;11.72;100.00
33781;BME280;20097;50.832;19.100;2023-05-25T01:27:59;98800.53;;;11.69;100.00
33781;BME280;20097;50.832;19.100;2023-05-25T01:33:07;98802.00;;;11.72;100.00
33781;BME280;20097;50.832;19.100;2023-05-25T01:38:14;98806.38;;;11.79;100.00
33781;BME280;20097;50.832;19.100;2023-05-25T01:43:19;98804.59;;;11.80;100.00
33781;BME280;20097;50.832;19.100;2023-05-25T01:48:31;98802.97;;;11.79;100.00
33781;BME280;20097;50.832;19.100;2023-05-25T01:53:47;98802.97;;;11.79;100.00
33781;BME280;20097;50.832;19.100;2023-05-25T01:58:57;98788.41;;;11.76;100.00
33781;BME280;20097;50.832;19.100;2023-05-25T02:04:04;98795.16;;;11.71;100.00
33781;BME280;20097;50.832;19.100;2023-05-25T02:09:11;98791.06;;;11.60;100.00
33781;BME280;20097;50.832;19.100;2023-05-25T02:14:15;98796.13;;;11.62;100.00
33781;BME280;20097;50.832;19.100;2023-05-25T02:19:20;98802.69;;;11.66;100.00
33781;BME280;20097;50.832;19.100;2023-05-25T02:24:26;98810.38;;;11.67;100.00
33781;BME280;20097;50.832;19.100;2023-05-25T02:29:30;98807.25;;;11.64;100.00
33781;BME280;20097;50.832;19.100;2023-05-25T02:34:35;98808.38;;;11.61;100.00
33781;BME280;20097;50.832;19.100;2023-05-25T02:39:42;98816.72;;;11.65;100.00
33781;BME280;20097;50.832;19.100;2023-05-25T02:44:47;98812.97;;;11.67;100.00
33781;BME280;20097;50.832;19.100;2023-05-25T02:49:52;98819.81;;;11.60;100.00
33781;BME280;20097;50.832;19.100;2023-05-25T02:54:57;98823.75;;;11.72;100.00
33781;BME280;20097;50.832;19.100;2023-05-25T03:00:12;98812.16;;;11.59;100.00
33781;BME280;20097;50.832;19.100;2023-05-25T03:05:17;98818.81;;;11.61;100.00
33781;BME280;20097;50.832;19.100;2023-05-25T03:10:23;98811.31;;;11.58;100.00
33781;BME280;20097;50.832;19.100;2023-05-25T03:15:28;98816.91;;;11.63;100.00
33781;BME280;20097;50.832;19.100;2023-05-25T03:20:32;98826.38;;;11.56;100.00
33781;BME280;20097;50.832;19.100;2023-05-25T03:25:38;98825.03;;;11.60;100.00
33781;BME280;20097;50.832;19.100;2023-05-25T03:30:43;98824.22;;;11.60;100.00
33781;BME280;20097;50.832;19.100;2023-05-25T03:35:48;98828.84;;;11.50;100.00
33781;BME280;20097;50.832;19.100;2023-05-25T03:40:54;98825.56;;;11.48;100.00
33781;BME280;20097;50.832;19.100;2023-05-25T03:45:58;98835.06;;;11.41;100.00
33781;BME280;20097;50.832;19.100;2023-05-25T03:51:03;98832.94;;;11.44;100.00
33781;BME280;20097;50.832;19.100;2023-05-25T03:56:09;98841.75;;;11.35;100.00
33781;BME280;20097;50.832;19.100;2023-05-25T04:01:13;98833.91;;;11.51;100.00
33781;BME280;20097;50.832;19.100;2023-05-25T04:06:18;98838.00;;;11.38;100.00
33781;BME280;20097;50.832;19.100;2023-05-25T04:11:25;98841.09;;;11.41;100.00
33781;BME280;20097;50.832;19.100;2023-05-25T04:16:31;98840.78;;;11.36;100.00
33781;BME280;20097;50.832;19.100;2023-05-25T04:21:36;98840.13;;;11.26;100.00
33781;BME280;20097;50.832;19.100;2023-05-25T04:26:42;98847.97;;;11.26;100.00
33781;BME280;20097;50.832;19.100;2023-05-25T04:31:48;98844.69;;;11.32;100.00
33781;BME280;20097;50.832;19.100;2023-05-25T04:37:18;98853.19;;;11.42;100.00
33781;BME280;20097;50.832;19.100;2023-05-25T04:42:25;98856.78;;;11.41;100.00
33781;BME280;20097;50.832;19.100;2023-05-25T04:47:31;98862.03;;;11.17;100.00
33781;BME280;20097;50.832;19.100;2023-05-25T04:52:36;98864.31;;;11.20;100.00
33781;BME280;20097;50.832;19.100;2023-05-25T04:57:45;98867.09;;;11.19;100.00
33781;BME280;20097;50.832;19.100;2023-05-25T05:02:50;98877.84;;;11.16;100.00
33781;BME280;20097;50.832;19.100;2023-05-25T05:07:56;98871.81;;;11.15;100.00
33781;BME280;20097;50.832;19.100;2023-05-25T05:13:03;98878.84;;;11.23;100.00
33781;BME280;20097;50.832;19.100;2023-05-25T05:18:08;98888.00;;;11.19;100.00
33781;BME280;20097;50.832;19.100;2023-05-25T05:23:12;98898.44;;;11.19;100.00
33781;BME280;20097;50.832;19.100;2023-05-25T05:28:18;98902.53;;;11.21;100.00
33781;BME280;20097;50.832;19.100;2023-05-25T05:33:23;98903.34;;;11.38;100.00
33781;BME280;20097;50.832;19.100;2023-05-25T05:38:28;98911.34;;;11.36;100.00
33781;BME280;20097;50.832;19.100;2023-05-25T05:43:34;98908.41;;;11.31;100.00
33781;BME280;20097;50.832;19.100;2023-05-25T05:48:39;98910.34;;;11.45;100.00
33781;BME280;20097;50.832;19.100;2023-05-25T05:53:45;98908.41;;;11.47;100.00
33781;BME280;20097;50.832;19.100;2023-05-25T05:58:50;98918.53;;;11.26;100.00
33781;BME280;20097;50.832;19.100;2023-05-25T06:03:56;98912.81;;;11.31;100.00
33781;BME280;20097;50.832;19.100;2023-05-25T06:09:00;98911.66;;;11.49;100.00
33781;BME280;20097;50.832;19.100;2023-05-25T06:14:08;98919.03;;;11.38;100.00
33781;BME280;20097;50.832;19.100;2023-05-25T06:19:13;98924.25;;;11.38;100.00
33781;BME280;20097;50.832;19.100;2023-05-25T06:24:17;98927.34;;;11.49;100.00
33781;BME280;20097;50.832;19.100;2023-05-25T06:29:23;98934.53;;;11.47;100.00
33781;BME280;20097;50.832;19.100;2023-05-25T06:34:27;98934.06;;;11.76;100.00
33781;BME280;20097;50.832;19.100;2023-05-25T06:39:32;98927.09;;;12.15;100.00
33781;BME280;20097;50.832;19.100;2023-05-25T06:44:39;98932.09;;;12.49;100.00
33781;BME280;20097;50.832;19.100;2023-05-25T06:49:43;98933.63;;;12.66;100.00
33781;BME280;20097;50.832;19.100;2023-05-25T06:54:48;98942.41;;;12.81;100.00
33781;BME280;20097;50.832;19.100;2023-05-25T06:59:54;98940.03;;;13.02;100.00
33781;BME280;20097;50.832;19.100;2023-05-25T07:04:59;98937.88;;;13.05;100.00
33781;BME280;20097;50.832;19.100;2023-05-25T07:10:06;98932.81;;;13.26;100.00
33781;BME280;20097;50.832;19.100;2023-05-25T07:15:12;98948.06;;;13.45;100.00
33781;BME280;20097;50.832;19.100;2023-05-25T07:20:18;98935.59;;;13.47;100.00
33781;BME280;20097;50.832;19.100;2023-05-25T07:25:24;98946.34;;;13.38;100.00
33781;BME280;20097;50.832;19.100;2023-05-25T07:30:29;98943.34;;;13.41;100.00
33781;BME280;20097;50.832;19.100;2023-05-25T07:35:34;98949.53;;;13.48;100.00
33781;BME280;20097;50.832;19.100;2023-05-25T07:40:38;98948.19;;;13.89;100.00
33781;BME280;20097;50.832;19.100;2023-05-25T07:45:44;98954.78;;;13.85;100.00
33781;BME280;20097;50.832;19.100;2023-05-25T07:50:49;98950.88;;;13.81;100.00
33781;BME280;20097;50.832;19.100;2023-05-25T07:55:53;98954.63;;;14.01;100.00
33781;BME280;20097;50.832;19.100;2023-05-25T08:00:59;98954.00;;;14.14;100.00
33781;BME280;20097;50.832;19.100;2023-05-25T08:06:04;98943.03;;;14.10;100.00
33781;BME280;20097;50.832;19.100;2023-05-25T08:11:08;98948.41;;;14.17;100.00
33781;BME280;20097;50.832;19.100;2023-05-25T08:16:15;98946.81;;;14.30;100.00
33781;BME280;20097;50.832;19.100;2023-05-25T08:21:20;98950.25;;;14.31;100.00
33781;BME280;20097;50.832;19.100;2023-05-25T08:26:25;98953.25;;;14.42;100.00
33781;BME280;20097;50.832;19.100;2023-05-25T08:31:49;98959.38;;;14.49;100.00
33781;BME280;20097;50.832;19.100;2023-05-25T08:36:55;98957.66;;;14.13;100.00
33781;BME280;20097;50.832;19.100;2023-05-25T08:41:59;98956.66;;;14.28;100.00
33781;BME280;20097;50.832;19.100;2023-05-25T08:47:06;98964.50;;;13.99;100.00
33781;BME280;20097;50.832;19.100;2023-05-25T08:52:13;98955.91;;;14.05;100.00
33781;BME280;20097;50.832;19.100;2023-05-25T08:57:24;98967.78;;;14.16;100.00
33781;BME280;20097;50.832;19.100;2023-05-25T09:02:37;98958.84;;;14.25;100.00
33781;BME280;20097;50.832;19.100;2023-05-25T09:07:42;98961.13;;;14.42;100.00
33781;BME280;20097;50.832;19.100;2023-05-25T09:12:47;98958.03;;;14.53;100.00
33781;BME280;20097;50.832;19.100;2023-05-25T09:17:55;98971.72;;;14.63;100.00
33781;BME280;20097;50.832;19.100;2023-05-25T09:23:00;98971.72;;;14.63;100.00
33781;BME280;20097;50.832;19.100;2023-05-25T09:28:07;98967.78;;;14.74;100.00
33781;BME280;20097;50.832;19.100;2023-05-25T09:33:30;98973.97;;;14.81;100.00
33781;BME280;20097;50.832;19.100;2023-05-25T09:38:36;98972.38;;;14.86;100.00
33781;BME280;20097;50.832;19.100;2023-05-25T09:43:40;98986.81;;;14.90;100.00
33781;BME280;20097;50.832;19.100;2023-05-25T09:49:01;98984.44;;;14.95;100.00
33781;BME280;20097;50.832;19.100;2023-05-25T09:54:09;98982.59;;;14.75;100.00
33781;BME280;20097;50.832;19.100;2023-05-25T09:59:13;98989.97;;;15.00;100.00
33781;BME280;20097;50.832;19.100;2023-05-25T10:04:19;98982.41;;;15.12;100.00
33781;BME280;20097;50.832;19.100;2023-05-25T10:09:24;98986.28;;;15.16;100.00
33781;BME280;20097;50.832;19.100;2023-05-25T10:14:31;98991.50;;;15.31;100.00
33781;BME280;20097;50.832;19.100;2023-05-25T10:19:43;98991.69;;;15.44;100.00
33781;BME280;20097;50.832;19.100;2023-05-25T10:24:53;98995.06;;;15.59;100.00
33781;BME280;20097;50.832;19.100;2023-05-25T10:30:01;98988.97;;;15.58;100.00
33781;BME280;20097;50.832;19.100;2023-05-25T10:35:08;98993.13;;;15.88;100.00
33781;BME280;20097;50.832;19.100;2023-05-25T10:40:13;98990.00;;;16.06;100.00
33781;BME280;20097;50.832;19.100;2023-05-25T10:45:18;98986.88;;;15.96;100.00
33781;BME280;20097;50.832;19.100;2023-05-25T10:50:26;98987.47;;;16.19;100.00
33781;BME280;20097;50.832;19.100;2023-05-25T10:55:41;98984.69;;;16.55;100.00
33781;BME280;20097;50.832;19.100;2023-05-25T11:00:57;98984.72;;;16.61;100.00
33781;BME280;20097;50.832;19.100;2023-05-25T11:06:04;98987.44;;;16.81;100.00
33781;BME280;20097;50.832;19.100;2023-05-25T11:11:11;98980.38;;;16.81;100.00
33781;BME280;20097;50.832;19.100;2023-05-25T11:16:21;98981.97;;;16.82;100.00
33781;BME280;20097;50.832;19.100;2023-05-25T11:21:44;98982.19;;;16.81;100.00
33781;BME280;20097;50.832;19.100;2023-05-25T11:26:56;98979.31;;;16.76;100.00
33781;BME280;20097;50.832;19.100;2023-05-25T11:32:01;98972.38;;;16.68;100.00
33781;BME280;20097;50.832;19.100;2023-05-25T11:37:07;98976.00;;;16.67;100.00
33781;BME280;20097;50.832;19.100;2023-05-25T11:42:14;98971.59;;;16.74;100.00
33781;BME280;20097;50.832;19.100;2023-05-25T11:47:21;98971.69;;;16.94;100.00
33781;BME280;20097;50.832;19.100;2023-05-25T11:52:28;98969.09;;;16.60;100.00
33781;BME280;20097;50.832;19.100;2023-05-25T11:57:33;98966.44;;;16.53;100.00
33781;BME280;20097;50.832;19.100;2023-05-25T12:02:39;98971.00;;;16.44;100.00
33781;BME280;20097;50.832;19.100;2023-05-25T12:07:45;98965.69;;;16.38;100.00
33781;BME280;20097;50.832;19.100;2023-05-25T12:12:50;98964.06;;;16.37;100.00
33781;BME280;20097;50.832;19.100;2023-05-25T12:18:00;98973.63;;;16.79;100.00
33781;BME280;20097;50.832;19.100;2023-05-25T12:23:06;98971.84;;;16.45;100.00
33781;BME280;20097;50.832;19.100;2023-05-25T12:28:11;98961.50;;;16.84;100.00
33781;BME280;20097;50.832;19.100;2023-05-25T12:33:17;98968.31;;;17.26;100.00
33781;BME280;20097;50.832;19.100;2023-05-25T12:38:22;98965.88;;;17.24;100.00
33781;BME280;20097;50.832;19.100;2023-05-25T12:43:37;98961.13;;;17.60;100.00
33781;BME280;20097;50.832;19.100;2023-05-25T12:48:41;98947.06;;;18.19;99.33
33781;BME280;20097;50.832;19.100;2023-05-25T12:53:49;98955.84;;;18.00;97.06
33781;BME280;20097;50.832;19.100;2023-05-25T12:58:53;98956.47;;;17.69;100.00
33781;BME280;20097;50.832;19.100;2023-05-25T13:03:58;98941.13;;;18.30;99.97
33781;BME280;20097;50.832;19.100;2023-05-25T13:09:04;98946.84;;;18.40;96.90
33781;BME280;20097;50.832;19.100;2023-05-25T13:14:08;98937.41;;;19.14;93.79
33781;BME280;20097;50.832;19.100;2023-05-25T13:19:13;98934.41;;;19.66;90.08
33781;BME280;20097;50.832;19.100;2023-05-25T13:24:18;98925.31;;;19.31;88.17
33781;BME280;20097;50.832;19.100;2023-05-25T13:29:23;98923.13;;;19.77;89.36
33781;BME280;20097;50.832;19.100;2023-05-25T13:34:27;98914.91;;;19.61;88.50
33781;BME280;20097;50.832;19.100;2023-05-25T13:39:33;98909.50;;;20.71;82.93
33781;BME280;20097;50.832;19.100;2023-05-25T13:44:37;98905.53;;;20.80;77.90
33781;BME280;20097;50.832;19.100;2023-05-25T13:49:41;98912.63;;;20.50;84.13
33781;BME280;20097;50.832;19.100;2023-05-25T13:54:47;98909.16;;;19.88;85.76
33781;BME280;20097;50.832;19.100;2023-05-25T13:59:51;98909.00;;;19.83;84.56
33781;BME280;20097;50.832;19.100;2023-05-25T14:04:55;98897.19;;;19.61;88.42
33781;BME280;20097;50.832;19.100;2023-05-25T14:10:01;98896.84;;;19.51;89.18
33781;BME280;20097;50.832;19.100;2023-05-25T14:15:08;98885.28;;;19.70;90.29
33781;BME280;20097;50.832;19.100;2023-05-25T14:20:12;98894.09;;;19.40;92.11
33781;BME280;20097;50.832;19.100;2023-05-25T14:25:24;98902.19;;;19.13;94.02
33781;BME280;20097;50.832;19.100;2023-05-25T14:30:29;98895.59;;;19.23;92.84
33781;BME280;20097;50.832;19.100;2023-05-25T14:35:33;98888.47;;;19.30;97.64
33781;BME280;20097;50.832;19.100;2023-05-25T14:40:39;98883.56;;;19.27;96.09
33781;BME280;20097;50.832;19.100;2023-05-25T14:45:43;98882.78;;;18.88;96.51
33781;BME280;20097;50.832;19.100;2023-05-25T14:50:48;98875.47;;;18.84;100.00
33781;BME280;20097;50.832;19.100;2023-05-25T14:55:55;98867.97;;;18.81;100.00
33781;BME280;20097;50.832;19.100;2023-05-25T15:00:59;98879.19;;;18.76;100.00
33781;BME280;20097;50.832;19.100;2023-05-25T15:06:05;98880.03;;;18.64;100.00
33781;BME280;20097;50.832;19.100;2023-05-25T15:11:11;98871.22;;;18.32;100.00
33781;BME280;20097;50.832;19.100;2023-05-25T15:16:16;98865.22;;;18.63;100.00
33781;BME280;20097;50.832;19.100;2023-05-25T15:21:21;98871.31;;;18.63;100.00
33781;BME280;20097;50.832;19.100;2023-05-25T15:26:27;98875.13;;;18.74;100.00
33781;BME280;20097;50.832;19.100;2023-05-25T15:31:31;98873.63;;;18.91;99.82
33781;BME280;20097;50.832;19.100;2023-05-25T15:36:36;98871.66;;;18.80;97.82
33781;BME280;20097;50.832;19.100;2023-05-25T15:41:42;98866.19;;;18.75;97.20
33781;BME280;20097;50.832;19.100;2023-05-25T15:46:46;98867.69;;;18.51;100.00
33781;BME280;20097;50.832;19.100;2023-05-25T15:51:50;98866.63;;;18.59;99.04
33781;BME280;20097;50.832;19.100;2023-05-25T15:56:57;98858.97;;;18.88;95.83
33781;BME280;20097;50.832;19.100;2023-05-25T16:02:02;98852.06;;;18.87;96.13
33781;BME280;20097;50.832;19.100;2023-05-25T16:07:06;98850.34;;;18.99;95.15
33781;BME280;20097;50.832;19.100;2023-05-25T16:12:12;98843.88;;;18.95;96.43
33781;BME280;20097;50.832;19.100;2023-05-25T16:17:16;98852.16;;;19.05;96.39
33781;BME280;20097;50.832;19.100;2023-05-25T16:22:21;98844.72;;;18.89;94.86
33781;BME280;20097;50.832;19.100;2023-05-25T16:27:27;98859.00;;;18.82;95.36
33781;BME280;20097;50.832;19.100;2023-05-25T16:32:31;98851.34;;;18.67;94.32
33781;BME280;20097;50.832;19.100;2023-05-25T16:37:36;98837.34;;;18.67;97.86
33781;BME280;20097;50.832;19.100;2023-05-25T16:42:42;98840.63;;;18.56;97.49
33781;BME280;20097;50.832;19.100;2023-05-25T16:47:46;98836.81;;;18.45;96.72
33781;BME280;20097;50.832;19.100;2023-05-25T16:52:51;98832.56;;;18.31;98.90
33781;BME280;20097;50.832;19.100;2023-05-25T16:57:57;98841.94;;;18.34;100.00
33781;BME280;20097;50.832;19.100;2023-05-25T17:03:02;98839.53;;;18.19;100.00
33781;BME280;20097;50.832;19.100;2023-05-25T17:08:06;98840.22;;;18.02;100.00
33781;BME280;20097;50.832;19.100;2023-05-25T17:13:13;98847.34;;;17.82;100.00
33781;BME280;20097;50.832;19.100;2023-05-25T17:18:17;98855.09;;;17.76;100.00
33781;BME280;20097;50.832;19.100;2023-05-25T17:23:23;98850.84;;;17.62;100.00
33781;BME280;20097;50.832;19.100;2023-05-25T17:28:29;98848.00;;;17.57;100.00
33781;BME280;20097;50.832;19.100;2023-05-25T17:33:34;98838.63;;;17.42;100.00
33781;BME280;20097;50.832;19.100;2023-05-25T17:38:41;98841.88;;;17.37;100.00
33781;BME280;20097;50.832;19.100;2023-05-25T17:43:47;98844.31;;;17.32;100.00
33781;BME280;20097;50.832;19.100;2023-05-25T17:48:51;98854.06;;;17.12;100.00
33781;BME280;20097;50.832;19.100;2023-05-25T17:53:55;98851.78;;;16.96;100.00
33781;BME280;20097;50.832;19.100;2023-05-25T17:59:01;98846.91;;;16.93;100.00
33781;BME280;20097;50.832;19.100;2023-05-25T18:04:05;98856.25;;;16.83;100.00
33781;BME280;20097;50.832;19.100;2023-05-25T18:09:13;98861.28;;;16.71;100.00
33781;BME280;20097;50.832;19.100;2023-05-25T18:14:20;98858.38;;;16.53;100.00
33781;BME280;20097;50.832;19.100;2023-05-25T18:19:24;98863.56;;;16.40;100.00
33781;BME280;20097;50.832;19.100;2023-05-25T18:24:28;98863.91;;;16.24;100.00
33781;BME280;20097;50.832;19.100;2023-05-25T18:29:34;98864.22;;;16.08;100.00
33781;BME280;20097;50.832;19.100;2023-05-25T18:34:38;98871.75;;;15.83;100.00
33781;BME280;20097;50.832;19.100;2023-05-25T18:39:43;98876.84;;;15.85;100.00
33781;BME280;20097;50.832;19.100;2023-05-25T18:44:49;98878.56;;;15.71;100.00
33781;BME280;20097;50.832;19.100;2023-05-25T18:49:53;98879.53;;;15.64;100.00
33781;BME280;20097;50.832;19.100;2023-05-25T18:54:57;98880.53;;;15.63;100.00
33781;BME280;20097;50.832;19.100;2023-05-25T19:00:04;98883.28;;;15.55;100.00
33781;BME280;20097;50.832;19.100;2023-05-25T19:05:10;98886.81;;;15.41;100.00
33781;BME280;20097;50.832;19.100;2023-05-25T19:10:17;98888.13;;;15.30;100.00
33781;BME280;20097;50.832;19.100;2023-05-25T19:15:23;98887.44;;;15.22;100.00
33781;BME280;20097;50.832;19.100;2023-05-25T19:20:27;98894.19;;;15.09;100.00
33781;BME280;20097;50.832;19.100;2023-05-25T19:25:34;98894.31;;;15.01;100.00
33781;BME280;20097;50.832;19.100;2023-05-25T19:30:40;98893.00;;;14.91;100.00
33781;BME280;20097;50.832;19.100;2023-05-25T19:35:44;98894.09;;;14.82;100.00
33781;BME280;20097;50.832;19.100;2023-05-25T19:40:48;98896.94;;;14.66;100.00
33781;BME280;20097;50.832;19.100;2023-05-25T19:45:54;98904.94;;;14.58;100.00
33781;BME280;20097;50.832;19.100;2023-05-25T19:50:59;98901.59;;;14.49;100.00
33781;BME280;20097;50.832;19.100;2023-05-25T19:56:04;98901.81;;;14.33;100.00
33781;BME280;20097;50.832;19.100;2023-05-25T20:01:09;98898.44;;;14.25;100.00
33781;BME280;20097;50.832;19.100;2023-05-25T20:06:14;98899.44;;;14.09;100.00
33781;BME280;20097;50.832;19.100;2023-05-25T20:11:18;98889.66;;;14.03;100.00
33781;BME280;20097;50.832;19.100;2023-05-25T20:16:24;98891.72;;;13.93;100.00
33781;BME280;20097;50.832;19.100;2023-05-25T20:21:28;98892.19;;;13.97;100.00
33781;BME280;20097;50.832;19.100;2023-05-25T20:26:32;98889.47;;;13.90;100.00
33781;BME280;20097;50.832;19.100;2023-05-25T20:31:38;98893.25;;;14.02;100.00
33781;BME280;20097;50.832;19.100;2023-05-25T20:36:42;98888.47;;;14.06;100.00
33781;BME280;20097;50.832;19.100;2023-05-25T20:41:47;98890.22;;;14.13;100.00
33781;BME280;20097;50.832;19.100;2023-05-25T20:46:53;98889.84;;;14.16;100.00
33781;BME280;20097;50.832;19.100;2023-05-25T20:51:57;98890.13;;;14.21;100.00
33781;BME280;20097;50.832;19.100;2023-05-25T20:57:02;98895.97;;;14.23;100.00
33781;BME280;20097;50.832;19.100;2023-05-25T21:02:08;98893.00;;;14.26;100.00
33781;BME280;20097;50.832;19.100;2023-05-25T21:07:13;98897.56;;;14.32;100.00
33781;BME280;20097;50.832;19.100;2023-05-25T21:12:17;98898.53;;;14.31;100.00
33781;BME280;20097;50.832;19.100;2023-05-25T21:17:23;98897.28;;;14.27;100.00
33781;BME280;20097;50.832;19.100;2023-05-25T21:22:27;98898.91;;;14.28;100.00
33781;BME280;20097;50.832;19.100;2023-05-25T21:27:32;98899.09;;;14.27;100.00
33781;BME280;20097;50.832;19.100;2023-05-25T21:32:39;98903.41;;;14.20;100.00
33781;BME280;20097;50.832;19.100;2023-05-25T21:37:43;98902.31;;;14.14;100.00
33781;BME280;20097;50.832;19.100;2023-05-25T21:42:47;98898.78;;;14.07;100.00
33781;BME280;20097;50.832;19.100;2023-05-25T21:47:56;98900.16;;;14.03;100.00
33781;BME280;20097;50.832;19.100;2023-05-25T21:53:00;98907.66;;;14.06;100.00
33781;BME280;20097;50.832;19.100;2023-05-25T21:58:05;98901.41;;;14.07;100.00
33781;BME280;20097;50.832;19.100;2023-05-25T22:03:10;98906.19;;;14.04;100.00
33781;BME280;20097;50.832;19.100;2023-05-25T22:08:15;98907.22;;;14.03;100.00
33781;BME280;20097;50.832;19.100;2023-05-25T22:13:19;98905.78;;;14.00;100.00
33781;BME280;20097;50.832;19.100;2023-05-25T22:18:25;98899.69;;;14.00;100.00
33781;BME280;20097;50.832;19.100;2023-05-25T22:23:29;98893.91;;;14.04;100.00
33781;BME280;20097;50.832;19.100;2023-05-25T22:28:33;98893.72;;;14.06;100.00
33781;BME280;20097;50.832;19.100;2023-05-25T22:33:40;98894.91;;;14.03;100.00
33781;BME280;20097;50.832;19.100;2023-05-25T22:38:45;98899.78;;;14.06;100.00
33781;BME280;20097;50.832;19.100;2023-05-25T22:43:49;98903.34;;;14.13;100.00
33781;BME280;20097;50.832;19.100;2023-05-25T22:48:55;98896.72;;;14.17;100.00
33781;BME280;20097;50.832;19.100;2023-05-25T22:54:00;98898.97;;;14.20;100.00
33781;BME280;20097;50.832;19.100;2023-05-25T22:59:04;98898.31;;;14.18;100.00
33781;BME280;20097;50.832;19.100;2023-05-25T23:04:10;98899.88;;;14.13;100.00
33781;BME280;20097;50.832;19.100;2023-05-25T23:09:14;98902.41;;;14.06;100.00
33781;BME280;20097;50.832;19.100;2023-05-25T23:14:19;98896.44;;;13.98;100.00
33781;BME280;20097;50.832;19.100;2023-05-25T23:19:24;98891.72;;;13.93;100.00
33781;BME280;20097;50.832;19.100;2023-05-25T23:24:29;98892.72;;;13.92;100.00
33781;BME280;20097;50.832;19.100;2023-05-25T23:29:33;98900.44;;;13.94;100.00
33781;BME280;20097;50.832;19.100;2023-05-25T23:34:39;98903.19;;;13.92;100.00
33781;BME280;20097;50.832;19.100;2023-05-25T23:39:43;98904.75;;;14.01;100.00
33781;BME280;20097;50.832;19.100;2023-05-25T23:44:48;98901.13;;;14.02;100.00
33781;BME280;20097;50.832;19.100;2023-05-25T23:49:53;98901.78;;;14.04;100.00
33781;BME280;20097;50.832;19.100;2023-05-25T23:55:00;98904.22;;;14.06;100.00
